Time;durP1;ratioP1;P1;durP2;ratioP2;P2;SDS_P1;SDS_P2;PMS_P1;PMS_P2;Temp;Humidity;BMP_temperature;BMP_pressure;BME280_temperature;BME280_humidity;BME280_pressure;Samples;Min_cycle;Max_cycle;Signal;HPM_P1;HPM_P2
2022/06/02 00:01:22;;;;;;;68.70;6.73;;;13.80;54.60;;;;;;5117130;27;20411;-89
2022/06/02 00:04:34;;;;;;;73.63;5.80;;;13.80;54.20;;;;;;5116539;27;20889;-89
2022/06/02 00:07:06;;;;;;;70.10;6.13;;;13.70;56.10;;;;;;5116530;27;21022;-89
2022/06/02 00:09:44;;;;;;;69.73;6.30;;;13.70;55.80;;;;;;5135563;27;20425;-89
2022/06/02 00:12:24;;;;;;;68.03;6.40;;;13.70;55.60;;;;;;5117092;27;20761;-89
2022/06/02 00:15:33;;;;;;;69.00;7.37;;;13.70;55.30;;;;;;5135644;27;20407;-89
2022/06/02 00:18:16;;;;;;;67.70;6.73;;;13.60;55.90;;;;;;5116862;27;20418;-89
2022/06/02 00:21:07;;;;;;;70.67;8.47;;;13.60;56.40;;;;;;5117869;27;20743;-88
2022/06/02 00:23:57;;;;;;;;;;;;;;;;;;;;;
2022/06/02 00:26:54;;;;;;;68.93;7.57;;;13.50;61.00;;;;;;5135491;27;20415;-89
2022/06/02 00:30:18;;;;;;;68.60;8.77;;;13.50;60.40;;;;;;5117141;27;20408;-88
2022/06/02 00:33:20;;;;;;;72.50;8.23;;;13.50;62.20;;;;;;5135433;27;20904;-89
2022/06/02 00:36:23;;;;;;;67.70;6.93;;;13.40;62.30;;;;;;5116982;27;20434;-89
2022/06/02 00:39:24;;;;;;;72.10;8.77;;;13.40;64.40;;;;;;5016028;28;20443;-88
2022/06/02 00:42:07;;;;;;;74.80;8.23;;;13.40;63.50;;;;;;5135322;27;20817;-88
2022/06/02 00:45:01;;;;;;;69.97;7.00;;;13.40;63.60;;;;;;5116488;27;20868;-88
2022/06/02 00:48:15;;;;;;;70.37;8.20;;;13.40;63.30;;;;;;5117251;27;20435;-88
2022/06/02 00:50:59;;;;;;;70.17;8.30;;;13.30;63.50;;;;;;5046146;27;20560;-89
2022/06/02 01:00:21;;;;;;;72.23;7.70;;;13.20;64.50;;;;;;5135365;27;20896;-88
2022/06/02 01:03:27;;;;;;;68.37;7.40;;;13.20;65.00;;;;;;5135786;27;20402;-88
2022/06/02 01:06:11;;;;;;;69.87;7.67;;;13.20;63.90;;;;;;5083363;27;20443;-88
2022/06/02 01:09:11;;;;;;;71.97;7.07;;;13.10;65.40;;;;;;5115176;27;20486;-88
2022/06/02 01:12:05;;;;;;;73.20;7.47;;;13.10;67.80;;;;;;5117023;28;20415;-88
2022/06/02 01:15:15;;;;;;;69.63;7.53;;;13.00;67.80;;;;;;5110589;27;20415;-88
2022/06/02 01:17:53;;;;;;;68.97;7.53;;;13.00;66.60;;;;;;5090949;27;20435;-88
2022/06/02 01:24:33;;;;;;;67.73;6.73;;;12.90;66.80;;;;;;5130496;27;20604;-88
2022/06/02 01:27:26;;;;;;;68.50;7.67;;;12.90;67.20;;;;;;5117047;28;20829;-88
2022/06/02 01:30:13;;;;;;;68.03;6.77;;;12.90;67.50;;;;;;5117447;28;20488;-88
2022/06/02 01:32:48;;;;;;;70.77;8.03;;;12.90;67.10;;;;;;5117621;28;20406;-88
2022/06/02 01:35:52;;;;;;;69.57;6.63;;;12.90;66.40;;;;;;5117543;28;20735;-88
2022/06/02 01:38:43;;;;;;;69.20;7.87;;;12.80;69.80;;;;;;5135026;28;20770;-88
2022/06/02 01:41:51;;;;;;;69.13;7.17;;;12.80;69.70;;;;;;5116651;28;20415;-88
2022/06/02 01:45:03;;;;;;;73.27;7.43;;;12.80;71.40;;;;;;5135128;28;20450;-88
2022/06/02 01:48:05;;;;;;;69.47;7.50;;;12.70;72.80;;;;;;5078720;28;20435;-88
2022/06/02 01:50:39;;;;;;;70.20;8.37;;;12.70;71.60;;;;;;5116409;28;20395;-88
2022/06/02 01:53:25;;;;;;;69.40;7.70;;;12.70;71.50;;;;;;5117116;28;20399;-88
2022/06/02 01:56:28;;;;;;;67.77;5.97;;;12.70;72.70;;;;;;5116958;28;20423;-88
2022/06/02 01:59:32;;;;;;;71.23;6.43;;;12.60;74.80;;;;;;5113725;28;20407;-88
2022/06/02 02:02:20;;;;;;;67.97;6.97;;;12.60;75.10;;;;;;5135394;28;20378;-88
2022/06/02 02:05:15;;;;;;;70.67;7.33;;;12.60;74.30;;;;;;5117179;28;20945;-88
2022/06/02 02:08:05;;;;;;;68.70;6.50;;;12.50;73.70;;;;;;5116898;28;20491;-88
2022/06/02 02:11:29;;;;;;;69.37;6.70;;;12.50;73.00;;;;;;5134856;28;20873;-88
2022/06/02 02:14:35;;;;;;;69.87;6.97;;;12.40;74.20;;;;;;5134272;28;20462;-88
2022/06/02 02:17:56;;;;;;;69.97;6.40;;;12.40;76.10;;;;;;5115614;28;20963;-88
2022/06/02 02:21:04;;;;;;;69.80;6.63;;;12.40;79.10;;;;;;5116784;28;20411;-88
2022/06/02 02:24:11;;;;;;;70.87;7.30;;;12.40;79.00;;;;;;5134801;28;20487;-88
2022/06/02 02:27:16;;;;;;;69.03;7.33;;;12.30;77.80;;;;;;5119682;27;20535;-88
2022/06/02 02:33:38;;;;;;;68.72;7.22;;;12.30;76.70;;;;;;5138410;27;20367;-88
2022/06/02 02:36:48;;;;;;;68.70;6.60;;;12.20;78.40;;;;;;5119757;27;20235;-88
2022/06/02 02:39:47;;;;;;;68.30;6.63;;;12.20;79.20;;;;;;5104111;27;20426;-88
2022/06/02 02:42:51;;;;;;;70.45;8.20;;;12.10;82.90;;;;;;5119560;27;20399;-88
2022/06/02 02:45:46;;;;;;;67.50;6.33;;;12.10;84.40;;;;;;5120183;27;20192;-88
2022/06/02 02:48:40;;;;;;;69.67;7.00;;;12.10;81.50;;;;;;5118909;27;20414;-88
2022/06/02 02:51:18;;;;;;;71.10;7.30;;;12.10;82.50;;;;;;5137956;27;20380;-88
2022/06/02 02:54:34;;;;;;;69.30;7.10;;;12.10;81.70;;;;;;5119430;27;20410;-88
2022/06/02 02:57:47;;;;;;;75.40;7.57;;;12.10;81.00;;;;;;5138247;27;20415;-88
2022/06/02 03:03:47;;;;;;;68.50;6.97;;;12.00;80.10;;;;;;5120949;27;20403;-88
2022/06/02 03:06:35;;;;;;;70.13;7.13;;;11.90;80.80;;;;;;5080146;27;20456;-88
2022/06/02 03:09:13;;;;;;;68.90;7.40;;;11.90;79.70;;;;;;5119472;27;20407;-88
2022/06/02 03:12:18;;;;;;;68.00;6.70;;;11.90;77.90;;;;;;5120271;27;20413;-88
2022/06/02 03:15:37;;;;;;;68.90;7.60;;;11.90;79.00;;;;;;5101950;27;20917;-88
2022/06/02 03:18:27;;;;;;;71.07;7.80;;;11.80;80.30;;;;;;5117657;27;20803;-88
2022/06/02 03:23:39;;;;;;;70.30;8.40;;;11.80;82.30;;;;;;5057171;28;20475;-88
2022/06/02 03:26:51;;;;;;;69.30;7.75;;;11.80;84.80;;;;;;5061957;28;20790;-88
2022/06/02 03:29:35;;;;;;;73.50;7.57;;;11.80;84.30;;;;;;5044088;28;20169;-87
2022/06/02 03:32:03;;;;;;;73.70;8.53;;;11.80;85.50;;;;;;5061734;28;20399;-88
2022/06/02 03:34:40;;;;;;;73.33;9.70;;;11.80;84.50;;;;;;5061546;28;20414;-87
2022/06/02 03:37:16;;;;;;;70.07;7.97;;;11.70;86.20;;;;;;5060183;28;20504;-88
2022/06/02 03:40:14;;;;;;;69.77;8.80;;;11.80;86.30;;;;;;5043074;28;20403;-88
2022/06/02 03:42:58;;;;;;;72.93;8.23;;;11.70;85.90;;;;;;5043173;28;20969;-88
2022/06/02 03:45:42;;;;;;;71.75;9.27;;;11.70;88.20;;;;;;5042729;28;20192;-88
2022/06/02 03:48:19;;;;;;;72.90;8.60;;;11.70;89.10;;;;;;5042386;28;20240;-87
2022/06/02 03:51:15;;;;;;;70.05;7.75;;;11.70;89.40;;;;;;5061614;28;20562;-88
2022/06/02 03:53:44;;;;;;;73.80;9.30;;;11.70;89.50;;;;;;5041987;28;20192;-86
2022/06/02 03:56:09;;;;;;;72.97;10.85;;;11.60;90.10;;;;;;5059737;28;20600;-87
2022/06/02 03:59:12;;;;;;;72.33;10.73;;;11.60;91.00;;;;;;5041842;28;20208;-86
2022/06/02 04:01:41;;;;;;;71.97;10.15;;;11.60;90.60;;;;;;5060052;28;20156;-87
2022/06/02 04:04:38;;;;;;;68.72;7.82;;;11.60;90.80;;;;;;5040664;28;20196;-87
2022/06/02 04:07:26;;;;;;;72.32;9.82;;;11.70;90.50;;;;;;5041284;28;20222;-86
2022/06/02 04:10:12;;;;;;;70.63;9.73;;;11.70;90.60;;;;;;5058980;28;20172;-87
2022/06/02 04:16:03;;;;;;;75.15;9.45;;;11.70;91.30;;;;;;5058382;28;20222;-88
2022/06/02 04:22:02;;;;;;;74.10;12.67;;;11.70;92.80;;;;;;5055983;28;20438;-87
2022/06/02 04:25:03;;;;;;;72.72;12.50;;;11.70;92.90;;;;;;5056480;28;20446;-87
2022/06/02 04:28:01;;;;;;;71.88;11.05;;;11.80;92.00;;;;;;5056194;28;20181;-87
2022/06/02 04:30:49;;;;;;;73.65;13.57;;;11.80;93.10;;;;;;5038055;28;20183;-86
2022/06/02 04:33:32;;;;;;;76.47;14.93;;;11.80;93.80;;;;;;5056224;28;20156;-87
2022/06/02 04:36:07;;;;;;;73.07;17.37;;;11.90;94.80;;;;;;5060774;28;20192;-88
2022/06/02 04:39:20;;;;;;;71.67;14.87;;;12.10;97.70;;;;;;5061685;28;20379;-89
2022/06/02 04:41:53;;;;;;;73.68;15.90;;;12.30;97.80;;;;;;5060855;28;20403;-87
2022/06/02 04:44:48;;;;;;;74.77;12.77;;;12.60;96.10;;;;;;5060583;28;20180;-87
2022/06/02 04:47:32;;;;;;;72.50;11.07;;;12.90;93.80;;;;;;5017284;28;20572;-89
2022/06/02 04:50:09;;;;;;;73.53;9.70;;;13.20;91.80;;;;;;5058694;28;20157;-87
2022/06/02 04:52:50;;;;;;;70.60;9.97;;;13.40;86.00;;;;;;5058853;28;20399;-87
2022/06/02 04:55:41;;;;;;;70.77;8.40;;;13.50;82.00;;;;;;5059216;28;20878;-87
2022/06/02 04:58:26;;;;;;;72.77;9.17;;;13.70;78.70;;;;;;5045534;28;20412;-86
2022/06/02 05:01:22;;;;;;;70.60;8.10;;;13.70;78.20;;;;;;5036822;28;20474;-86
2022/06/02 05:04:10;;;;;;;73.17;9.20;;;13.70;75.20;;;;;;5054907;28;20442;-86
2022/06/02 05:06:43;;;;;;;71.00;9.67;;;13.70;74.30;;;;;;5055534;28;20421;-87
2022/06/02 05:09:33;;;;;;;72.13;10.43;;;13.60;76.00;;;;;;5055050;28;20411;-87
2022/06/02 05:12:27;;;;;;;73.50;11.90;;;13.40;80.50;;;;;;5041141;28;20417;-88
2022/06/02 05:15:04;;;;;;;73.57;12.83;;;13.30;89.30;;;;;;5059636;28;20403;-88
2022/06/02 05:17:43;;;;;;;74.00;12.37;;;13.20;86.30;;;;;;5042696;28;20427;-88
2022/06/02 05:20:27;;;;;;;71.67;9.90;;;13.20;90.20;;;;;;5038404;28;20394;-88
2022/06/02 05:23:12;;;;;;;73.13;12.97;;;13.10;91.70;;;;;;5055663;28;20913;-87
2022/06/02 05:26:15;;;;;;;72.50;12.27;;;13.10;91.60;;;;;;5055799;28;20410;-87
2022/06/02 05:28:40;;;;;;;79.20;11.97;;;13.10;92.50;;;;;;5028128;28;20403;-87
2022/06/02 05:31:15;;;;;;;72.87;13.20;;;13.10;94.30;;;;;;5056410;28;20399;-87
2022/06/02 05:34:03;;;;;;;79.03;14.00;;;13.20;92.80;;;;;;5039092;28;20167;-86
2022/06/02 05:36:56;;;;;;;75.97;14.00;;;13.10;93.10;;;;;;5056516;28;20775;-87
2022/06/02 05:39:54;;;;;;;73.23;14.50;;;13.10;95.40;;;;;;5039152;28;20465;-87
2022/06/02 05:42:30;;;;;;;76.37;15.47;;;13.00;95.50;;;;;;5057410;28;20384;-87
2022/06/02 05:45:05;;;;;;;78.70;20.60;;;13.00;97.40;;;;;;5055196;28;20445;-86
2022/06/02 05:48:10;;;;;;;74.17;17.07;;;13.00;98.40;;;;;;5037243;28;20435;-86
2022/06/02 05:50:52;;;;;;;78.20;16.47;;;12.90;99.80;;;;;;5055319;28;20379;-87
2022/06/02 05:53:21;;;;;;;75.43;15.33;;;12.90;99.90;;;;;;5055450;28;20371;-86
2022/06/02 05:56:06;;;;;;;77.67;15.90;;;12.90;99.90;;;;;;5054619;28;20507;-86
2022/06/02 05:59:09;;;;;;;77.93;16.47;;;12.90;99.90;;;;;;5055009;28;20371;-86
2022/06/02 06:02:02;;;;;;;77.00;15.67;;;12.90;99.90;;;;;;5038387;28;20417;-86
2022/06/02 06:05:04;;;;;;;78.40;16.97;;;13.00;99.50;;;;;;5058340;28;20898;-87
2022/06/02 06:08:03;;;;;;;76.70;16.37;;;12.90;99.90;;;;;;5040180;28;20433;-86
2022/06/02 06:10:33;;;;;;;76.47;15.87;;;12.90;99.90;;;;;;5044116;28;20399;-88
2022/06/02 06:13:24;;;;;;;77.33;19.27;;;12.90;99.90;;;;;;5048656;28;20410;-88
2022/06/02 06:16:09;;;;;;;80.13;18.27;;;12.90;99.90;;;;;;5044760;28;20422;-88
2022/06/02 06:19:29;;;;;;;79.57;19.83;;;12.90;99.90;;;;;;5044967;28;20418;-87
2022/06/02 06:22:23;;;;;;;83.23;20.00;;;12.80;99.90;;;;;;4971500;28;20442;-88
2022/06/02 06:25:07;;;;;;;81.27;20.70;;;12.70;99.90;;;;;;5060102;28;20434;-87
2022/06/02 06:27:46;;;;;;;82.67;22.10;;;12.70;99.90;;;;;;5041742;28;20763;-87
2022/06/02 06:30:21;;;;;;;83.10;23.30;;;12.70;99.90;;;;;;5041955;28;20421;-87
2022/06/02 06:33:11;;;;;;;87.30;26.37;;;12.70;99.90;;;;;;5059849;28;20385;-87
2022/06/02 06:35:42;;;;;;;82.90;24.13;;;12.80;99.90;;;;;;5041613;28;20395;-87
2022/06/02 06:38:39;;;;;;;88.40;26.10;;;12.90;99.90;;;;;;5040097;28;20910;-86
2022/06/02 06:41:39;;;;;;;84.63;27.70;;;12.90;99.90;;;;;;5057460;28;20761;-86
2022/06/02 06:44:30;;;;;;;88.40;28.07;;;13.00;99.90;;;;;;5057666;28;20431;-87
2022/06/02 06:47:29;;;;;;;86.33;32.77;;;13.10;99.90;;;;;;5039275;28;20514;-86
2022/06/02 06:50:05;;;;;;;90.70;29.37;;;13.10;99.90;;;;;;5023713;28;20469;-86
2022/06/02 06:52:37;;;;;;;84.50;29.50;;;13.20;99.90;;;;;;5057230;28;20441;-87
2022/06/02 06:55:24;;;;;;;87.13;29.93;;;13.20;99.90;;;;;;5057027;28;20375;-87
2022/06/02 06:58:05;;;;;;;89.63;30.40;;;13.30;99.90;;;;;;5057337;28;20400;-87
2022/06/02 07:00:49;;;;;;;80.17;26.53;;;13.30;99.90;;;;;;5059174;28;20375;-88
2022/06/02 07:03:24;;;;;;;89.50;33.10;;;13.30;99.90;;;;;;5042742;28;20430;-86
2022/06/02 07:05:54;;;;;;;85.47;29.57;;;13.30;99.90;;;;;;5059555;28;20419;-88
2022/06/02 07:08:29;;;;;;;84.17;25.47;;;13.40;99.90;;;;;;5059630;28;20411;-88
2022/06/02 07:14:34;;;;;;;100.10;50.13;;;13.50;99.90;;;;;;5059251;28;20391;-88
2022/06/02 07:17:07;;;;;;;90.00;42.77;;;13.40;99.90;;;;;;4997605;28;20487;-87
2022/06/02 07:19:49;;;;;;;88.80;44.83;;;13.60;99.90;;;;;;5040785;28;20403;-87
2022/06/02 07:22:21;;;;;;;87.60;31.93;;;13.60;99.90;;;;;;5059380;28;20431;-88
2022/06/02 07:25:14;;;;;;;92.10;42.73;;;13.70;99.90;;;;;;5059418;28;20430;-88
2022/06/02 07:27:51;;;;;;;90.67;33.23;;;13.70;99.90;;;;;;5041174;28;20582;-87
2022/06/02 07:30:38;;;;;;;95.03;42.80;;;13.80;99.90;;;;;;5041431;28;20415;-88
2022/06/02 07:33:41;;;;;;;84.83;29.70;;;13.90;99.90;;;;;;5052216;28;20383;-87
2022/06/02 07:36:22;;;;;;;90.73;28.57;;;14.00;99.90;;;;;;5039970;28;20836;-87
2022/06/02 07:39:29;;;;;;;84.57;23.10;;;14.20;99.90;;;;;;5039601;28;20395;-87
2022/06/02 07:42:17;;;;;;;82.60;23.77;;;14.30;99.90;;;;;;5001701;28;20421;-88
2022/06/02 07:45:20;;;;;;;82.37;19.13;;;14.40;99.90;;;;;;5039695;28;20447;-86
2022/06/02 07:48:12;;;;;;;80.13;17.57;;;14.40;99.90;;;;;;5059833;28;20406;-88
2022/06/02 07:51:11;;;;;;;82.77;18.10;;;14.50;99.90;;;;;;5059071;28;20381;-88
2022/06/02 07:53:42;;;;;;;85.17;22.07;;;14.50;99.90;;;;;;5027179;28;20488;-87
2022/06/02 07:56:17;;;;;;;86.70;20.67;;;14.40;99.00;;;;;;5040451;28;20424;-88
2022/06/02 07:59:00;;;;;;;81.67;18.27;;;14.50;98.10;;;;;;5059469;28;20730;-87
2022/06/02 08:01:51;;;;;;;88.07;21.87;;;14.70;96.60;;;;;;5058294;28;20871;-87
2022/06/02 08:04:51;;;;;;;85.93;20.17;;;14.70;93.90;;;;;;5060306;28;20810;-86
2022/06/02 08:07:22;;;;;;;87.07;20.40;;;14.70;92.60;;;;;;5056410;28;20506;-86
2022/06/02 08:10:20;;;;;;;86.50;19.60;;;14.80;93.20;;;;;;5038140;28;20494;-86
2022/06/02 08:13:10;;;;;;;85.83;18.53;;;14.90;93.10;;;;;;5016615;28;20419;-86
2022/06/02 08:16:15;;;;;;;88.40;19.67;;;15.00;92.40;;;;;;5055687;28;20894;-86
2022/06/02 08:18:41;;;;;;;79.63;17.83;;;15.20;92.30;;;;;;5036875;28;20411;-86
2022/06/02 08:21:17;;;;;;;79.60;16.67;;;15.30;95.10;;;;;;5036977;28;20472;-86
2022/06/02 08:24:20;;;;;;;79.90;17.73;;;15.40;88.90;;;;;;5036452;28;20197;-86
2022/06/02 08:27:04;;;;;;;83.37;16.73;;;15.40;86.10;;;;;;5036828;28;20424;-88
2022/06/02 08:29:42;;;;;;;80.30;16.30;;;15.60;75.80;;;;;;5036917;28;20734;-87
2022/06/02 08:32:26;;;;;;;83.77;16.70;;;15.60;76.20;;;;;;5099662;23;20962;-86
2022/06/02 08:35:27;;;;;;;86.77;17.10;;;15.60;69.50;;;;;;5054904;28;20389;-86
2022/06/02 08:37:55;;;;;;;78.67;14.80;;;15.60;66.40;;;;;;5034855;28;20499;-87
2022/06/02 08:40:32;;;;;;;77.43;13.70;;;15.50;66.60;;;;;;5035414;28;20426;-87
2022/06/02 08:43:04;;;;;;;80.53;13.83;;;15.50;63.70;;;;;;5033766;28;20402;-87
2022/06/02 08:46:14;;;;;;;76.87;12.20;;;15.60;57.20;;;;;;5034940;28;20451;-87
2022/06/02 08:49:27;;;;;;;75.00;10.67;;;15.70;59.70;;;;;;5036229;28;20418;-87
2022/06/02 08:52:14;;;;;;;73.83;10.70;;;15.80;47.70;;;;;;5038172;28;20618;-88
2022/06/02 08:55:19;;;;;;;72.50;10.17;;;15.90;29.90;;;;;;5038024;28;20398;-88
2022/06/02 08:58:22;;;;;;;76.47;9.33;;;15.90;22.50;;;;;;5036259;28;20510;-88
2022/06/02 09:01:12;;;;;;;75.30;9.60;;;16.10;37.90;;;;;;5035953;28;20816;-87
2022/06/02 09:03:47;;;;;;;72.67;9.03;;;16.40;36.40;;;;;;5036545;28;20435;-86
2022/06/02 09:06:30;;;;;;;72.93;9.53;;;16.60;39.20;;;;;;5036615;28;20421;-88
2022/06/02 09:09:02;;;;;;;74.80;10.10;;;16.80;34.80;;;;;;5034786;28;20935;-87
2022/06/02 09:11:46;;;;;;;73.87;12.70;;;17.00;27.50;;;;;;5036760;28;20381;-87
2022/06/02 09:14:40;;;;;;;72.10;9.93;;;17.30;25.20;;;;;;5035569;28;20423;-88
2022/06/02 09:17:07;;;;;;;72.07;10.00;;;17.30;12.00;;;;;;5036101;28;20427;-87
2022/06/02 09:20:00;;;;;;;73.47;11.13;;;17.20;19.20;;;;;;5035080;28;20958;-86
2022/06/02 09:22:34;;;;;;;75.17;10.93;;;17.30;21.40;;;;;;5134145;22;20481;-86
2022/06/02 09:25:28;;;;;;;74.57;10.40;;;17.40;6.80;;;;;;5077987;28;20513;-86
2022/06/02 09:28:00;;;;;;;73.47;9.20;;;17.50;3.00;;;;;;5042397;28;20415;-86
2022/06/02 09:30:31;;;;;;;73.77;8.53;;;17.50;1.00;;;;;;5037970;28;20412;-86
2022/06/02 09:33:51;;;;;;;71.70;10.00;;;17.50;1.00;;;;;;5039444;28;20400;-86
2022/06/02 09:36:57;;;;;;;75.87;13.20;;;17.70;1.00;;;;;;5002364;28;20436;-86
2022/06/02 09:40:00;;;;;;;72.70;13.00;;;17.60;1.00;;;;;;5019841;28;20417;-86
2022/06/02 09:43:03;;;;;;;73.80;11.17;;;17.40;1.00;;;;;;5040889;28;20418;-86
2022/06/02 09:45:43;;;;;;;74.40;11.73;;;17.20;1.00;;;;;;5056712;28;20453;-87
2022/06/02 09:48:39;;;;;;;70.80;10.63;;;17.20;1.00;;;;;;5057064;28;20770;-86
2022/06/02 09:51:34;;;;;;;70.67;6.70;;;17.50;1.00;;;;;;5043835;28;20417;-87
2022/06/02 09:54:25;;;;;;;69.07;5.00;;;17.70;1.00;;;;;;5059753;28;20403;-87
2022/06/02 09:57:55;;;;;;;68.90;5.70;;;18.10;1.00;;;;;;5040107;28;20495;-86
2022/06/02 10:00:39;;;;;;;68.80;5.00;;;18.40;1.00;;;;;;5056347;28;20402;-87
2022/06/02 10:03:29;;;;;;;71.00;6.70;;;18.70;1.00;;;;;;5052798;28;20403;-86
2022/06/02 10:06:25;;;;;;;69.40;6.17;;;19.00;1.00;;;;;;5041043;28;20431;-86
2022/06/02 10:09:31;;;;;;;71.37;5.97;;;19.10;1.00;;;;;;5042468;28;20894;-87
2022/06/02 10:15:41;;;;;;;68.70;5.20;;;19.20;1.00;;;;;;5057192;28;20374;-86
2022/06/02 10:18:16;;;;;;;67.57;4.73;;;19.50;1.00;;;;;;5056667;28;20405;-86
2022/06/02 10:21:00;;;;;;;69.10;4.67;;;19.90;1.00;;;;;;5057404;28;20375;-86
2022/06/02 10:24:03;;;;;;;70.80;6.00;;;20.40;1.00;;;;;;5058918;28;20415;-86
2022/06/02 10:26:52;;;;;;;68.77;5.10;;;20.30;1.00;;;;;;5058553;28;20489;-87
2022/06/02 10:29:36;;;;;;;66.60;4.37;;;19.80;1.00;;;;;;5040716;28;20405;-85
2022/06/02 10:32:26;;;;;;;67.17;3.77;;;19.70;1.00;;;;;;5058376;28;20391;-86
2022/06/02 10:35:29;;;;;;;66.20;3.60;;;19.60;1.00;;;;;;5042830;28;20400;-84
2022/06/02 10:38:20;;;;;;;67.30;4.57;;;20.10;1.00;;;;;;5059183;28;20417;-86
2022/06/02 10:40:45;;;;;;;65.70;3.67;;;20.00;1.00;;;;;;5057362;28;20399;-87
2022/06/02 10:43:45;;;;;;;67.27;3.83;;;20.10;1.00;;;;;;5040139;28;20467;-87
2022/06/02 10:46:14;;;;;;;68.67;5.53;;;20.90;1.00;;;;;;5078870;28;20260;-86
2022/06/02 10:48:45;;;;;;;67.37;5.63;;;21.50;1.00;;;;;;5042016;28;20447;-86
2022/06/02 10:51:26;;;;;;;67.83;4.37;;;21.40;1.00;;;;;;5059869;28;20852;-86
2022/06/02 10:54:13;;;;;;;66.70;5.33;;;21.40;1.00;;;;;;5057545;28;20399;-86
2022/06/02 10:57:15;;;;;;;66.17;3.80;;;21.30;1.00;;;;;;5057970;28;20821;-86
2022/06/02 11:00:02;;;;;;;65.77;3.13;;;21.90;1.00;;;;;;5060343;28;20405;-86
2022/06/02 11:02:50;;;;;;;67.17;3.87;;;22.00;1.00;;;;;;5061089;28;20399;-86
2022/06/02 11:05:45;;;;;;;66.60;4.13;;;21.80;1.00;;;;;;5042011;28;20494;-85
2022/06/02 11:08:34;;;;;;;68.47;4.50;;;21.60;1.00;;;;;;5058855;28;20874;-86
2022/06/02 11:11:37;;;;;;;69.13;5.40;;;21.70;1.00;;;;;;5059808;28;20490;-86
2022/06/02 11:14:24;;;;;;;68.17;4.30;;;22.20;1.00;;;;;;5056486;28;20421;-86
2022/06/02 11:17:05;;;;;;;67.87;4.30;;;22.50;1.00;;;;;;5058296;28;20419;-86
2022/06/02 11:19:41;;;;;;;68.10;4.90;;;22.40;1.00;;;;;;5041857;28;20894;-86
2022/06/02 11:22:21;;;;;;;65.67;3.10;;;22.40;1.00;;;;;;5057091;28;20418;-86
2022/06/02 11:25:06;;;;;;;65.87;3.27;;;22.20;1.00;;;;;;5040460;28;20446;-86
2022/06/02 11:28:06;;;;;;;69.83;3.60;;;22.10;1.00;;;;;;5057848;28;20427;-86
2022/06/02 11:30:43;;;;;;;66.57;4.27;;;22.20;1.00;;;;;;5056208;28;20811;-85
2022/06/02 11:33:18;;;;;;;67.93;3.60;;;22.10;1.00;;;;;;5057848;28;20379;-86
2022/06/02 11:36:10;;;;;;;65.07;3.00;;;22.30;1.00;;;;;;5038691;28;20790;-87
2022/06/02 11:38:38;;;;;;;65.77;3.27;;;22.60;1.00;;;;;;5056703;28;20395;-87
2022/06/02 11:41:35;;;;;;;65.77;3.70;;;23.10;1.00;;;;;;5057079;28;20395;-86
2022/06/02 11:44:19;;;;;;;66.87;4.20;;;23.20;1.00;;;;;;5039517;28;20489;-87
2022/06/02 11:47:00;;;;;;;67.03;4.30;;;23.40;1.00;;;;;;5039064;28;20834;-86
2022/06/02 11:49:43;;;;;;;66.27;3.63;;;23.30;1.00;;;;;;5038817;28;20409;-86
2022/06/02 11:52:29;;;;;;;65.90;3.93;;;22.70;1.00;;;;;;5056365;28;20379;-87
2022/06/02 11:55:36;;;;;;;67.90;4.30;;;22.20;1.00;;;;;;5057153;28;20410;-86
2022/06/02 11:58:26;;;;;;;68.53;3.70;;;22.50;1.00;;;;;;5037773;28;20406;-86
2022/06/02 12:01:13;;;;;;;70.00;5.50;;;22.50;1.00;;;;;;5056032;28;20405;-86
2022/06/02 12:03:53;;;;;;;69.27;4.40;;;21.80;1.00;;;;;;5057978;28;20511;-86
2022/06/02 12:06:57;;;;;;;66.27;4.00;;;21.50;1.00;;;;;;5037984;28;20794;-87
2022/06/02 12:09:37;;;;;;;66.43;3.73;;;21.40;1.00;;;;;;5058164;28;20482;-86
2022/06/02 12:12:41;;;;;;;67.07;4.00;;;21.30;1.00;;;;;;5038710;28;20388;-86
2022/06/02 12:15:48;;;;;;;67.40;3.40;;;21.50;1.00;;;;;;5054031;28;20918;-86
2022/06/02 12:18:44;;;;;;;68.30;4.00;;;21.80;1.00;;;;;;5055883;28;20395;-86
2022/06/02 12:21:13;;;;;;;67.27;3.30;;;21.80;1.00;;;;;;5054998;28;20420;-86
2022/06/02 12:23:58;;;;;;;65.47;3.13;;;22.20;1.00;;;;;;5038330;28;20455;-86
2022/06/02 12:26:38;;;;;;;66.10;3.90;;;22.60;1.00;;;;;;5059733;28;20498;-86
2022/06/02 12:29:46;;;;;;;67.03;4.07;;;22.80;1.00;;;;;;5057091;28;20909;-86
2022/06/02 12:32:53;;;;;;;67.30;4.03;;;23.40;1.00;;;;;;5056366;28;20770;-87
2022/06/02 12:35:37;;;;;;;66.20;3.70;;;23.70;1.00;;;;;;5043076;28;20409;-88
2022/06/02 12:38:15;;;;;;;68.63;3.93;;;24.00;1.00;;;;;;5038040;28;20438;-86
2022/06/02 12:40:41;;;;;;;69.67;4.57;;;24.00;1.00;;;;;;5054992;28;20408;-85
2022/06/02 12:43:07;;;;;;;68.20;4.03;;;23.90;1.00;;;;;;5055188;28;20894;-86
2022/06/02 12:45:48;;;;;;;66.50;4.37;;;23.80;1.00;;;;;;5054596;28;20216;-86
2022/06/02 12:48:51;;;;;;;67.47;3.87;;;23.50;1.00;;;;;;5038373;28;20802;-86
2022/06/02 12:51:22;;;;;;;67.07;3.80;;;23.80;1.00;;;;;;5055926;28;20399;-86
2022/06/02 12:54:28;;;;;;;67.93;4.03;;;23.60;1.00;;;;;;5038826;28;20412;-86
2022/06/02 12:57:32;;;;;;;67.87;3.90;;;23.40;1.00;;;;;;5054038;28;20431;-86
2022/06/02 13:00:33;;;;;;;66.27;3.77;;;23.80;1.00;;;;;;5037273;28;20417;-85
2022/06/02 13:03:29;;;;;;;66.07;3.50;;;23.30;1.00;;;;;;5054668;28;20898;-85
2022/06/02 13:06:10;;;;;;;66.23;3.50;;;22.90;1.00;;;;;;5054725;28;20485;-86
2022/06/02 13:09:03;;;;;;;68.07;4.30;;;23.40;1.00;;;;;;5055219;28;20457;-86
2022/06/02 13:12:03;;;;;;;66.43;3.83;;;23.50;1.00;;;;;;5055143;28;20396;-87
2022/06/02 13:14:53;;;;;;;65.97;3.30;;;23.80;1.00;;;;;;5053644;28;20399;-85
2022/06/02 13:17:40;;;;;;;68.20;3.40;;;23.50;1.00;;;;;;5036447;28;20470;-85
2022/06/02 13:20:29;;;;;;;68.83;4.90;;;23.20;1.00;;;;;;5036362;28;20904;-86
2022/06/02 13:23:08;;;;;;;67.30;4.07;;;23.10;1.00;;;;;;5054611;28;20424;-85
2022/06/02 13:25:39;;;;;;;70.13;3.33;;;23.60;1.00;;;;;;5059748;28;20963;-86
2022/06/02 13:28:38;;;;;;;66.37;3.00;;;23.90;1.00;;;;;;5054078;28;20792;-86
2022/06/02 13:31:53;;;;;;;65.67;3.10;;;23.90;1.00;;;;;;5055165;28;20762;-85
2022/06/02 13:34:56;;;;;;;70.20;3.37;;;23.60;1.00;;;;;;5054945;28;20408;-86
2022/06/02 13:37:25;;;;;;;66.30;3.40;;;23.70;1.00;;;;;;5053435;28;20418;-86
2022/06/02 13:40:15;;;;;;;66.17;3.47;;;23.80;1.00;;;;;;5054044;28;20396;-85
2022/06/02 13:43:03;;;;;;;67.20;4.63;;;23.80;1.00;;;;;;5053709;28;20375;-85
2022/06/02 13:45:53;;;;;;;67.00;2.53;;;23.60;1.00;;;;;;5036550;28;20451;-85
2022/06/02 13:48:18;;;;;;;66.37;3.30;;;24.00;1.00;;;;;;5036154;28;20831;-85
2022/06/02 13:51:06;;;;;;;65.97;2.90;;;24.00;1.00;;;;;;5054255;28;20430;-85
2022/06/02 14:00:29;;;;;;;65.77;3.00;;;23.40;1.00;;;;;;4973542;28;20411;-84
2022/06/02 14:03:15;;;;;;;66.10;4.00;;;23.40;1.00;;;;;;4972785;28;20387;-85
2022/06/02 14:06:05;;;;;;;65.87;2.90;;;22.60;1.00;;;;;;5032626;28;20466;-85
2022/06/02 14:09:08;;;;;;;66.17;3.00;;;22.60;1.00;;;;;;5036668;28;20763;-86
2022/06/02 14:12:08;;;;;;;66.07;4.03;;;23.20;1.00;;;;;;5052983;28;20399;-85
2022/06/02 14:14:59;;;;;;;65.80;3.20;;;23.70;1.00;;;;;;5053533;28;20445;-85
2022/06/02 14:17:55;;;;;;;66.17;3.00;;;23.40;1.00;;;;;;5035171;28;21034;-85
2022/06/02 14:20:48;;;;;;;66.67;3.17;;;23.30;1.00;;;;;;5051860;28;20426;-86
2022/06/02 14:23:31;;;;;;;65.47;2.77;;;23.30;1.00;;;;;;5057547;28;20418;-86
2022/06/02 14:26:29;;;;;;;67.47;3.57;;;23.50;1.00;;;;;;5039960;28;20431;-87
2022/06/02 14:29:13;;;;;;;65.27;2.47;;;23.80;1.00;;;;;;5070955;28;20428;-87
2022/06/02 14:32:27;;;;;;;65.57;2.77;;;24.20;1.00;;;;;;5057316;28;20369;-86
2022/06/02 14:35:18;;;;;;;65.03;2.53;;;24.00;1.00;;;;;;5056145;28;20408;-84
2022/06/02 14:37:51;;;;;;;66.50;3.30;;;23.80;1.00;;;;;;5058123;28;20402;-86
2022/06/02 14:40:41;;;;;;;65.80;3.23;;;23.70;1.00;;;;;;5059709;28;20407;-86
2022/06/02 14:43:27;;;;;;;66.27;3.53;;;24.00;1.00;;;;;;5065824;28;20393;-86
2022/06/02 14:46:19;;;;;;;66.80;3.77;;;24.20;1.00;;;;;;5040200;28;20454;-86
2022/06/02 14:49:00;;;;;;;65.53;2.50;;;23.80;1.00;;;;;;5060759;28;20468;-86
2022/06/02 14:51:35;;;;;;;66.30;3.23;;;23.70;1.00;;;;;;5059708;28;20392;-85
2022/06/02 14:54:22;;;;;;;66.00;2.90;;;23.80;1.00;;;;;;5058671;28;20387;-85
2022/06/02 14:57:00;;;;;;;65.40;3.67;;;23.80;1.00;;;;;;5063949;28;20910;-85
2022/06/02 14:59:51;;;;;;;66.30;3.40;;;23.80;1.00;;;;;;5047648;28;21017;-85
2022/06/02 15:02:51;;;;;;;65.20;3.23;;;24.10;1.00;;;;;;5062613;28;20468;-85
2022/06/02 15:05:38;;;;;;;65.20;2.53;;;24.20;1.00;;;;;;5059373;28;20440;-85
2022/06/02 15:08:47;;;;;;;65.07;2.50;;;24.00;1.00;;;;;;5059820;28;20393;-85
2022/06/02 15:11:33;;;;;;;66.67;3.47;;;24.00;1.00;;;;;;5060737;28;20932;-85